createdAt,value
2019-02-14T00:00:45.291Z,26.43
2019-02-14T00:03:13.791Z,27.83
2019-02-14T00:05:42.260Z,28.30
2019-02-14T00:08:10.759Z,26.27
2019-02-14T00:10:39.237Z,27.17
2019-02-14T00:13:07.725Z,26.33
2019-02-14T00:15:37.752Z,27.90
2019-02-14T00:18:06.197Z,25.57
2019-02-14T00:20:34.678Z,26.40
2019-02-14T00:23:03.177Z,25.83
2019-02-14T00:25:31.672Z,27.27
2019-02-14T00:28:00.172Z,25.67
2019-02-14T00:30:28.643Z,24.03
2019-02-14T00:32:57.131Z,26.27
2019-02-14T00:35:25.597Z,25.83
2019-02-14T00:37:54.117Z,27.50
2019-02-14T00:40:22.656Z,26.47
2019-02-14T00:42:51.154Z,26.20
2019-02-14T00:45:19.632Z,27.03
2019-02-14T00:47:48.131Z,26.87
2019-02-14T00:50:16.588Z,26.97
2019-02-14T00:52:45.083Z,26.13
2019-02-14T00:55:13.564Z,26.53
2019-02-14T00:57:42.045Z,25.57
2019-02-14T01:00:11.631Z,25.70
2019-02-14T01:02:40.154Z,25.73
2019-02-14T01:05:08.877Z,25.70
2019-02-14T01:07:37.386Z,27.23
2019-02-14T01:10:07.004Z,25.40
2019-02-14T01:12:35.524Z,24.23
2019-02-14T01:15:05.918Z,24.33
2019-02-14T01:17:34.411Z,23.83
2019-02-14T01:20:02.882Z,24.90
2019-02-14T01:22:31.377Z,24.27
2019-02-14T01:24:59.902Z,23.00
2019-02-14T01:27:28.395Z,24.10
2019-02-14T01:29:56.877Z,23.47
2019-02-14T01:32:25.355Z,23.20
2019-02-14T01:34:53.825Z,24.07
2019-02-14T01:37:22.394Z,21.93
2019-02-14T01:39:50.872Z,23.07
2019-02-14T01:42:19.381Z,24.87
2019-02-14T01:44:47.861Z,22.17
2019-02-14T01:47:16.356Z,22.27
2019-02-14T01:49:44.839Z,21.30
2019-02-14T01:52:13.341Z,22.47
2019-02-14T01:54:41.817Z,23.23
2019-02-14T01:57:10.519Z,23.13
2019-02-14T01:59:38.985Z,23.07
2019-02-14T02:02:07.481Z,22.47
2019-02-14T02:04:35.946Z,21.53
2019-02-14T02:07:04.826Z,21.70
2019-02-14T02:09:33.297Z,21.13
2019-02-14T02:12:01.913Z,21.13
2019-02-14T02:14:30.399Z,20.83
2019-02-14T02:16:58.899Z,20.70
2019-02-14T02:19:27.361Z,20.43
2019-02-14T02:21:55.831Z,20.40
2019-02-14T02:24:24.328Z,19.77
2019-02-14T02:26:52.794Z,21.07
2019-02-14T02:29:21.298Z,20.07
2019-02-14T02:31:49.769Z,20.30
2019-02-14T02:34:18.265Z,20.00
2019-02-14T02:36:46.733Z,20.03
2019-02-14T02:39:15.223Z,20.70
2019-02-14T02:41:43.687Z,19.33
2019-02-14T02:44:12.187Z,19.87
2019-02-14T02:46:40.684Z,20.50
2019-02-14T02:49:09.190Z,19.93
2019-02-14T02:51:37.660Z,19.10
2019-02-14T02:54:06.162Z,18.70
2019-02-14T02:56:34.630Z,19.40
2019-02-14T02:59:03.108Z,19.63
2019-02-14T03:01:31.586Z,18.43
2019-02-14T03:04:00.072Z,18.90
2019-02-14T03:06:28.527Z,17.83
2019-02-14T03:08:57.031Z,17.07
2019-02-14T03:11:25.524Z,18.50
2019-02-14T03:13:54.020Z,17.30
2019-02-14T03:16:22.476Z,17.53
2019-02-14T03:18:50.958Z,17.73
2019-02-14T03:21:19.422Z,18.03
2019-02-14T03:23:47.933Z,16.87
2019-02-14T03:26:16.436Z,17.57
2019-02-14T03:28:44.893Z,17.33
2019-02-14T03:31:13.379Z,17.83
2019-02-14T03:33:41.870Z,17.53
2019-02-14T03:36:18.501Z,17.33
2019-02-14T03:38:40.576Z,17.33
2019-02-14T03:41:09.113Z,16.57
2019-02-14T03:43:37.650Z,16.97
2019-02-14T03:46:06.117Z,16.53
2019-02-14T03:48:34.587Z,15.93
2019-02-14T03:51:03.091Z,15.80
2019-02-14T03:53:31.576Z,16.63
2019-02-14T03:56:00.059Z,15.23
2019-02-14T03:58:28.574Z,16.77
2019-02-14T04:00:57.044Z,15.47
2019-02-14T04:03:25.542Z,15.13
2019-02-14T04:05:54.029Z,15.07
2019-02-14T04:08:22.513Z,15.03
2019-02-14T04:10:50.989Z,15.93
2019-02-14T04:13:19.472Z,15.90
2019-02-14T04:15:48.009Z,15.33
2019-02-14T04:18:16.514Z,15.20
2019-02-14T04:20:44.989Z,15.10
2019-02-14T04:23:13.489Z,14.40
2019-02-14T04:25:41.967Z,14.67
2019-02-14T04:28:10.463Z,15.23
2019-02-14T04:30:38.944Z,14.07
2019-02-14T04:33:07.428Z,13.43
2019-02-14T04:35:35.914Z,15.40
2019-02-14T04:38:04.389Z,14.27
2019-02-14T04:40:33.827Z,14.93
2019-02-14T04:43:02.450Z,14.37
2019-02-14T04:45:30.960Z,14.27
2019-02-14T04:47:59.510Z,13.97
2019-02-14T04:50:28.015Z,14.40
2019-02-14T04:53:21.235Z,15.10
2019-02-14T04:56:45.388Z,14.77
2019-02-14T04:59:42.141Z,14.40
2019-02-14T05:02:54.399Z,14.57
2019-02-14T05:05:41.193Z,14.07
2019-02-14T05:08:37.898Z,14.57
2019-02-14T05:11:25.190Z,13.77
2019-02-14T05:14:21.523Z,14.63
2019-02-14T05:17:17.096Z,14.13
2019-02-14T05:20:17.833Z,14.20
2019-02-14T05:23:07.180Z,14.17
2019-02-14T05:26:07.843Z,13.67
2019-02-14T05:29:02.794Z,13.97
2019-02-14T05:35:55.283Z,14.07
2019-02-14T05:39:01.770Z,14.60
2019-02-14T05:42:05.760Z,14.77
2019-02-14T05:45:21.497Z,14.77
2019-02-14T05:48:09.838Z,14.43
2019-02-14T05:50:58.982Z,16.97
2019-02-14T05:53:45.067Z,14.73
2019-02-14T05:56:56.257Z,15.40
2019-02-14T05:59:44.744Z,14.67
2019-02-14T06:02:49.208Z,15.47
2019-02-14T06:06:27.247Z,14.87
2019-02-14T06:09:38.967Z,14.17
2019-02-14T06:15:55.176Z,15.00
2019-02-14T06:18:47.016Z,15.37
2019-02-14T06:21:53.458Z,17.37
2019-02-14T06:24:40.488Z,15.77
2019-02-14T06:31:12.625Z,15.60
2019-02-14T06:37:16.240Z,16.20
2019-02-14T06:40:17.320Z,15.33
2019-02-14T06:43:22.595Z,16.23
2019-02-14T06:52:37.425Z,16.10
2019-02-14T06:55:56.376Z,15.97
2019-02-14T07:01:48.735Z,15.57
2019-02-14T07:14:37.852Z,16.27
2019-02-14T07:17:55.010Z,15.73
2019-02-14T07:36:02.872Z,16.40
2019-02-14T07:38:54.955Z,16.13
2019-02-14T07:41:52.480Z,15.30
2019-02-14T07:48:01.173Z,16.30
2019-02-14T07:50:48.445Z,16.00
2019-02-14T07:53:40.839Z,16.57
2019-02-14T07:56:29.909Z,16.33
2019-02-14T08:06:17.240Z,16.53
2019-02-14T08:09:00.454Z,15.90
2019-02-14T08:11:54.061Z,16.63
2019-02-14T08:14:52.770Z,15.83
2019-02-14T08:17:43.264Z,16.23
2019-02-14T08:20:24.855Z,16.00
2019-02-14T08:28:54.775Z,16.27
2019-02-14T08:31:34.761Z,17.03
2019-02-14T08:37:26.157Z,15.87
2019-02-14T08:40:02.262Z,17.70
2019-02-14T08:42:47.926Z,16.23
2019-02-14T08:45:38.222Z,16.13
2019-02-14T08:48:20.115Z,16.93
2019-02-14T08:50:58.295Z,16.73
2019-02-14T08:53:32.699Z,17.27
2019-02-14T08:56:04.037Z,16.83
2019-02-14T08:58:37.888Z,16.67
2019-02-14T09:01:19.142Z,17.97
2019-02-14T09:04:02.883Z,16.57
2019-02-14T09:06:45.126Z,17.30
2019-02-14T09:09:26.804Z,17.17
2019-02-14T09:12:07.981Z,17.47
2019-02-14T09:14:51.086Z,16.70
2019-02-14T09:17:27.180Z,18.03
2019-02-14T09:20:06.005Z,16.20
2019-02-14T09:22:45.314Z,16.67
2019-02-14T09:25:21.925Z,17.07
2019-02-14T09:28:02.565Z,16.63
2019-02-14T09:30:41.590Z,15.93
2019-02-14T09:33:22.168Z,16.60
2019-02-14T09:36:03.581Z,15.67
2019-02-14T09:38:47.758Z,16.67
2019-02-14T09:41:21.780Z,16.10
2019-02-14T09:43:54.612Z,16.50
2019-02-14T09:46:27.808Z,16.03
2019-02-14T09:49:05.062Z,16.33
2019-02-14T09:51:35.906Z,15.73
2019-02-14T09:54:10.079Z,16.43
2019-02-14T09:56:46.077Z,15.33
2019-02-14T09:59:22.645Z,16.40
2019-02-14T10:01:59.482Z,16.80
2019-02-14T10:07:17.877Z,15.00
2019-02-14T10:09:54.287Z,15.47
2019-02-14T10:12:36.787Z,14.80
2019-02-14T10:15:09.526Z,14.23
2019-02-14T10:17:43.973Z,14.77
2019-02-14T10:20:19.749Z,12.63
2019-02-14T10:22:55.067Z,13.67
2019-02-14T10:25:31.797Z,13.47
2019-02-14T10:28:21.551Z,15.13
2019-02-14T10:30:57.488Z,12.60
2019-02-14T10:33:29.323Z,13.10
2019-02-14T10:36:04.574Z,13.23
2019-02-14T10:38:37.598Z,13.60
2019-02-14T10:41:08.893Z,12.27
2019-02-14T10:44:00.190Z,13.20
2019-02-14T10:46:40.687Z,13.90
2019-02-14T10:49:16.167Z,14.43
2019-02-14T10:51:52.522Z,13.33
2019-02-14T10:54:32.585Z,13.37
2019-02-14T10:57:09.853Z,12.40
2019-02-14T10:59:44.608Z,11.83
2019-02-14T11:02:22.348Z,11.63
2019-02-14T11:04:57.161Z,11.20
2019-02-14T11:07:32.520Z,11.03
2019-02-14T11:10:11.170Z,11.00
2019-02-14T11:15:37.198Z,11.17
2019-02-14T11:21:23.768Z,13.03
2019-02-14T11:24:06.029Z,13.67
2019-02-14T11:26:42.548Z,13.50
2019-02-14T11:29:16.138Z,12.60
2019-02-14T11:31:54.459Z,14.83
2019-02-14T11:34:31.215Z,15.67
2019-02-14T11:40:00.099Z,14.60
2019-02-14T11:43:01.887Z,15.10
2019-02-14T11:45:39.292Z,16.30
2019-02-14T11:48:13.147Z,16.73
2019-02-14T11:50:47.974Z,17.50
2019-02-14T11:53:30.896Z,16.70
2019-02-14T11:56:10.050Z,16.50
2019-02-14T11:58:53.595Z,17.07
2019-02-14T12:01:30.984Z,15.83
2019-02-14T12:04:05.893Z,15.30
2019-02-14T12:06:42.794Z,15.80
2019-02-14T12:09:26.090Z,15.23
2019-02-14T12:12:03.202Z,15.50
2019-02-14T12:14:40.027Z,15.37
2019-02-14T12:17:13.071Z,15.43
2019-02-14T12:19:48.950Z,14.27
2019-02-14T12:22:31.657Z,15.30
2019-02-14T12:25:11.619Z,15.73
2019-02-14T12:27:51.669Z,15.13
2019-02-14T12:30:34.169Z,14.63
2019-02-14T12:33:15.356Z,14.43
2019-02-14T12:35:53.258Z,13.93
2019-02-14T12:38:35.062Z,14.00
2019-02-14T12:41:13.757Z,14.80
2019-02-14T12:44:06.621Z,15.00
2019-02-14T12:46:51.514Z,15.13
2019-02-14T12:49:30.108Z,14.70
2019-02-14T12:52:11.239Z,15.30
2019-02-14T12:54:47.653Z,15.20
2019-02-14T12:57:30.343Z,15.37
2019-02-14T13:00:07.025Z,14.57
2019-02-14T13:02:41.191Z,15.60
2019-02-14T13:05:20.776Z,13.60
2019-02-14T13:07:58.888Z,13.97
2019-02-14T13:10:41.482Z,14.57
2019-02-14T13:13:14.120Z,14.90
2019-02-14T13:15:53.992Z,14.70
2019-02-14T13:18:30.062Z,14.47
2019-02-14T13:21:15.122Z,14.87
2019-02-14T13:23:56.217Z,13.27
2019-02-14T13:26:32.009Z,15.30
2019-02-14T13:29:11.506Z,15.53
2019-02-14T13:31:54.373Z,16.40
2019-02-14T13:34:31.668Z,14.80
2019-02-14T13:37:09.340Z,15.67
2019-02-14T13:39:47.133Z,14.07
2019-02-14T13:42:30.073Z,14.63
2019-02-14T13:45:08.443Z,14.80
2019-02-14T13:48:01.220Z,14.07
2019-02-14T13:50:44.515Z,14.40
2019-02-14T13:53:33.947Z,13.43
2019-02-14T13:56:08.010Z,12.73
2019-02-14T13:58:44.201Z,12.63
2019-02-14T14:01:16.800Z,13.40
2019-02-14T14:03:47.944Z,13.63
2019-02-14T14:06:41.199Z,14.13
2019-02-14T14:09:18.271Z,14.30
2019-02-14T14:11:56.830Z,14.10
2019-02-14T14:14:31.384Z,13.90
2019-02-14T14:17:04.201Z,14.43
2019-02-14T14:19:42.604Z,14.43
2019-02-14T14:22:14.886Z,14.37
2019-02-14T14:24:44.155Z,14.40
2019-02-14T14:27:16.035Z,12.97
2019-02-14T14:29:46.823Z,14.17
2019-02-14T14:32:18.959Z,13.17
2019-02-14T14:34:53.246Z,13.27
2019-02-14T14:37:25.401Z,13.43
2019-02-14T14:39:57.288Z,13.40
2019-02-14T14:42:39.337Z,13.10
2019-02-14T14:48:04.867Z,13.93
2019-02-14T14:50:37.974Z,12.80
2019-02-14T14:53:10.350Z,13.17
2019-02-14T14:55:42.532Z,13.00
2019-02-14T14:58:15.660Z,13.20
2019-02-14T15:00:47.853Z,13.50
2019-02-14T15:03:18.482Z,12.40
2019-02-14T15:05:55.246Z,12.90
2019-02-14T15:08:25.761Z,13.40
2019-02-14T15:10:57.390Z,12.50
2019-02-14T15:13:29.635Z,12.73
2019-02-14T15:16:01.223Z,12.27
2019-02-14T15:18:36.055Z,13.10
2019-02-14T15:21:10.579Z,11.83
2019-02-14T15:26:34.461Z,11.97
2019-02-14T15:29:11.296Z,11.27
2019-02-14T15:31:45.248Z,12.27
2019-02-14T15:34:20.251Z,13.20
2019-02-14T15:36:59.711Z,12.27
2019-02-14T15:39:36.154Z,11.83
2019-02-14T15:42:11.293Z,12.07
2019-02-14T15:44:51.989Z,12.07
2019-02-14T15:47:32.423Z,11.90
2019-02-14T15:50:09.428Z,11.63
2019-02-14T15:52:47.561Z,12.80
2019-02-14T15:55:24.327Z,11.93
2019-02-14T15:58:04.490Z,13.07
2019-02-14T16:00:46.792Z,12.40
2019-02-14T16:03:22.501Z,11.90
2019-02-14T16:05:56.996Z,13.17
2019-02-14T16:08:35.330Z,14.37
2019-02-14T16:11:14.295Z,14.03
2019-02-14T16:13:49.994Z,12.87
2019-02-14T16:16:28.935Z,12.20
2019-02-14T16:19:08.722Z,12.77
2019-02-14T16:21:44.808Z,12.13
2019-02-14T16:24:21.252Z,12.17
2019-02-14T16:26:59.240Z,11.60
2019-02-14T16:29:38.494Z,13.27
2019-02-14T16:32:14.337Z,12.20
2019-02-14T16:34:43.507Z,12.07
2019-02-14T16:37:13.169Z,12.37
2019-02-14T16:39:51.870Z,12.00
2019-02-14T16:42:39.028Z,12.37
2019-02-14T16:45:12.809Z,12.10
2019-02-14T16:47:51.377Z,11.77
2019-02-14T16:50:29.329Z,11.20
2019-02-14T16:53:24.151Z,12.13
2019-02-14T16:56:02.030Z,11.30
2019-02-14T16:58:39.581Z,12.67
2019-02-14T17:01:19.016Z,12.07
2019-02-14T17:03:54.294Z,12.37
2019-02-14T17:06:34.550Z,13.50
2019-02-14T17:09:08.422Z,14.07
2019-02-14T17:11:46.680Z,12.70
2019-02-14T17:14:24.497Z,12.60
2019-02-14T17:17:02.356Z,13.20
2019-02-14T17:19:40.887Z,13.30
2019-02-14T17:22:15.112Z,13.80
2019-02-14T17:24:50.067Z,13.00
2019-02-14T17:27:22.270Z,13.63
2019-02-14T17:30:01.618Z,13.17
2019-02-14T17:32:35.546Z,14.20
2019-02-14T17:35:07.893Z,13.00
2019-02-14T17:37:50.767Z,13.33
2019-02-14T17:40:31.971Z,12.97
2019-02-14T17:43:08.325Z,13.50
2019-02-14T17:45:40.979Z,12.63
2019-02-14T17:48:19.892Z,13.63
2019-02-14T17:50:54.017Z,13.27
2019-02-14T17:53:24.989Z,12.73
2019-02-14T17:56:05.793Z,13.03
2019-02-14T17:58:43.624Z,13.13
2019-02-14T18:01:17.595Z,12.63
2019-02-14T18:04:13.267Z,13.20
2019-02-14T18:07:06.888Z,13.83
2019-02-14T18:09:48.578Z,12.60
2019-02-14T18:12:27.888Z,13.77
2019-02-14T18:15:03.238Z,13.30
2019-02-14T18:17:45.420Z,13.50
2019-02-14T18:20:24.912Z,14.37
2019-02-14T18:22:55.448Z,14.23
2019-02-14T18:25:31.838Z,14.63
2019-02-14T18:28:10.700Z,13.73
2019-02-14T18:30:53.567Z,14.20
2019-02-14T18:33:36.479Z,13.47
2019-02-14T18:36:13.464Z,14.47
2019-02-14T18:38:53.665Z,15.13
2019-02-14T18:41:32.181Z,14.07
2019-02-14T18:44:29.223Z,13.23
2019-02-14T18:47:10.593Z,14.30
2019-02-14T18:49:48.157Z,15.57
2019-02-14T18:52:27.892Z,15.83
2019-02-14T18:55:05.673Z,19.30
2019-02-14T18:57:44.558Z,18.53
2019-02-14T19:00:25.824Z,17.07
2019-02-14T19:03:01.989Z,16.63
2019-02-14T19:05:40.958Z,15.43
2019-02-14T19:08:16.642Z,14.83
2019-02-14T19:10:49.404Z,14.93
2019-02-14T19:13:24.134Z,15.03
2019-02-14T19:15:53.302Z,15.03
2019-02-14T19:18:30.567Z,14.97
2019-02-14T19:21:10.023Z,14.90
2019-02-14T19:23:47.870Z,14.47
2019-02-14T19:26:25.018Z,14.27
2019-02-14T19:29:04.168Z,18.33
2019-02-14T19:31:45.742Z,22.17
2019-02-14T19:34:25.441Z,18.77
2019-02-14T19:36:54.400Z,15.33
2019-02-14T19:39:22.878Z,15.67
2019-02-14T19:41:51.373Z,14.50
2019-02-14T19:44:19.852Z,14.87
2019-02-14T19:46:50.030Z,13.67
2019-02-14T19:49:18.699Z,13.67
2019-02-14T19:51:47.181Z,13.23
2019-02-14T19:54:15.657Z,13.37
2019-02-14T19:56:44.187Z,14.97
2019-02-14T19:59:12.661Z,14.23
2019-02-14T20:01:41.155Z,16.73
2019-02-14T20:04:09.619Z,14.33
2019-02-14T20:06:38.108Z,13.40
2019-02-14T20:09:07.160Z,11.77
2019-02-14T20:11:37.102Z,13.93
2019-02-14T20:14:05.938Z,14.10
2019-02-14T20:16:34.452Z,12.53
2019-02-14T20:19:03.019Z,12.17
2019-02-14T20:21:31.476Z,11.97
2019-02-14T20:23:59.970Z,12.20
2019-02-14T20:26:28.441Z,11.77
2019-02-14T20:28:56.939Z,10.90
2019-02-14T20:31:25.421Z,11.13
2019-02-14T20:33:53.930Z,10.83
2019-02-14T20:36:22.411Z,11.30
2019-02-14T20:38:50.914Z,12.10
2019-02-14T20:41:19.407Z,10.97
2019-02-14T20:43:47.892Z,11.23
2019-02-14T20:46:16.353Z,10.80
2019-02-14T20:48:44.850Z,10.57
2019-02-14T20:51:13.333Z,10.57
2019-02-14T20:53:41.813Z,9.80
2019-02-14T20:56:10.296Z,10.50
2019-02-14T20:58:38.775Z,10.10
2019-02-14T21:01:08.881Z,8.70
2019-02-14T21:03:37.374Z,10.10
2019-02-14T21:06:05.951Z,10.03
2019-02-14T21:08:34.443Z,9.10
2019-02-14T21:11:02.909Z,9.33
2019-02-14T21:13:31.407Z,9.10
2019-02-14T21:15:59.874Z,9.33
2019-02-14T21:18:28.369Z,9.23
2019-02-14T21:20:56.840Z,9.57
2019-02-14T21:23:25.340Z,8.63
2019-02-14T21:25:54.876Z,9.30
2019-02-14T21:28:23.358Z,9.10
2019-02-14T21:30:51.846Z,9.23
2019-02-14T21:33:20.342Z,8.07
2019-02-14T21:35:48.796Z,9.60
2019-02-14T21:38:17.325Z,9.53
2019-02-14T21:40:45.806Z,9.50
2019-02-14T21:43:14.342Z,9.47
2019-02-14T21:45:42.829Z,9.27
2019-02-14T21:48:11.307Z,8.53
2019-02-14T21:50:39.805Z,8.43
2019-02-14T21:53:08.293Z,8.90
2019-02-14T21:55:36.833Z,8.93
2019-02-14T21:58:05.980Z,8.07
2019-02-14T22:00:34.959Z,9.07
2019-02-14T22:03:03.445Z,8.67
2019-02-14T22:05:32.006Z,9.03
2019-02-14T22:08:00.464Z,9.60
2019-02-14T22:10:28.954Z,9.93
2019-02-14T22:12:57.420Z,9.47
2019-02-14T22:15:28.314Z,8.77
2019-02-14T22:17:56.790Z,8.77
2019-02-14T22:20:25.260Z,8.67
2019-02-14T22:22:53.723Z,9.23
2019-02-14T22:25:22.225Z,9.40
2019-02-14T22:27:50.689Z,9.47
2019-02-14T22:30:19.183Z,9.10
2019-02-14T22:32:47.673Z,9.27
2019-02-14T22:35:16.341Z,9.83
2019-02-14T22:37:44.975Z,9.83
2019-02-14T22:40:14.310Z,10.23
2019-02-14T22:42:46.962Z,9.50
2019-02-14T22:45:15.294Z,9.70
2019-02-14T22:47:44.950Z,8.77
2019-02-14T22:50:13.897Z,9.53
2019-02-14T22:52:42.369Z,10.17
2019-02-14T22:55:14.353Z,9.87
2019-02-14T22:57:42.797Z,9.10
2019-02-14T23:00:34.104Z,9.60
2019-02-14T23:03:02.592Z,9.10
2019-02-14T23:05:31.069Z,9.63
2019-02-14T23:07:59.544Z,9.67
2019-02-14T23:10:28.211Z,8.97
2019-02-14T23:12:56.711Z,10.00
2019-02-14T23:15:25.198Z,9.23
2019-02-14T23:17:53.672Z,9.90
2019-02-14T23:20:22.163Z,9.53
2019-02-14T23:22:50.640Z,9.17
2019-02-14T23:25:19.135Z,9.23
2019-02-14T23:27:47.643Z,9.63
2019-02-14T23:30:16.112Z,9.80
2019-02-14T23:32:44.578Z,9.80
2019-02-14T23:35:13.136Z,8.87
2019-02-14T23:37:41.575Z,9.50
2019-02-14T23:40:10.129Z,9.27
2019-02-14T23:42:38.612Z,8.73
2019-02-14T23:45:09.546Z,8.83
2019-02-14T23:47:38.018Z,9.70
2019-02-14T23:50:08.841Z,9.60
2019-02-14T23:52:37.312Z,9.20
2019-02-14T23:55:07.438Z,8.47
2019-02-14T23:57:35.906Z,9.47
